Time;durP1;ratioP1;P1;durP2;ratioP2;P2;SDS_P1;SDS_P2;PMS_P1;PMS_P2;Temp;Humidity;BMP_temperature;BMP_pressure;BME280_temperature;BME280_humidity;BME280_pressure;Samples;Min_cycle;Max_cycle;Signal;HPM_P1;HPM_P2
2023/09/10 00:00:12;;;;;;;20.75;14.82;;;20.80;70.90;;;;;;9166882;19;20022;-66
2023/09/10 00:03:19;;;;;;;22.60;14.98;;;20.80;71.00;;;;;;9166444;19;20019;-66
2023/09/10 00:06:27;;;;;;;18.70;14.05;;;20.70;71.00;;;;;;9163901;19;20028;-66
2023/09/10 00:09:35;;;;;;;21.33;14.00;;;20.70;71.10;;;;;;9164780;19;20030;-66
2023/09/10 00:12:40;;;;;;;23.70;13.77;;;20.70;71.10;;;;;;9166381;19;20048;-66
2023/09/10 00:15:47;;;;;;;17.02;12.68;;;20.70;71.10;;;;;;9161934;19;20015;-66
2023/09/10 00:18:53;;;;;;;16.92;12.27;;;20.70;71.20;;;;;;9164954;19;20021;-66
2023/09/10 00:22:02;;;;;;;18.27;13.10;;;20.60;71.20;;;;;;9165477;19;20030;-66
2023/09/10 00:25:08;;;;;;;17.75;12.98;;;20.60;71.30;;;;;;9160655;19;20554;-66
2023/09/10 00:28:16;;;;;;;16.00;12.70;;;20.50;71.30;;;;;;9165626;19;20819;-66
2023/09/10 00:31:24;;;;;;;16.75;12.57;;;20.50;71.30;;;;;;9162594;19;20048;-67
2023/09/10 00:34:33;;;;;;;14.52;12.07;;;20.40;71.30;;;;;;9163420;19;20093;-65
2023/09/10 00:37:42;;;;;;;16.40;11.07;;;20.40;71.40;;;;;;9164385;19;20025;-66
2023/09/10 00:40:49;;;;;;;17.02;10.45;;;20.40;71.50;;;;;;9161627;19;20019;-65
2023/09/10 00:43:55;;;;;;;17.00;11.25;;;20.40;71.50;;;;;;9162944;19;20399;-65
2023/09/10 00:47:02;;;;;;;15.63;11.95;;;20.40;71.60;;;;;;9162394;19;20018;-66
2023/09/10 00:50:09;;;;;;;14.10;11.20;;;20.30;71.60;;;;;;9163259;19;20026;-66
2023/09/10 00:53:21;;;;;;;21.70;11.45;;;20.30;71.70;;;;;;9162662;19;20029;-65
2023/09/10 00:56:26;;;;;;;15.05;11.27;;;20.30;71.80;;;;;;9162902;19;20018;-65
2023/09/10 00:59:34;;;;;;;15.52;10.68;;;20.20;71.70;;;;;;9164203;19;20785;-65
2023/09/10 01:02:45;;;;;;;13.55;10.20;;;20.20;71.80;;;;;;9163376;19;20021;-65
2023/09/10 01:05:53;;;;;;;15.48;10.73;;;20.20;71.90;;;;;;9161547;19;20038;-65
2023/09/10 01:09:01;;;;;;;12.73;9.95;;;20.20;71.90;;;;;;9163776;19;20029;-66
2023/09/10 01:12:25;;;;;;;11.77;9.52;;;20.20;72.00;;;;;;9160756;19;20429;-66
2023/09/10 01:15:36;;;;;;;16.77;9.70;;;20.10;72.10;;;;;;9164567;19;20025;-65
2023/09/10 01:18:49;;;;;;;12.88;9.00;;;20.10;72.10;;;;;;9163600;19;20041;-65
2023/09/10 01:21:58;;;;;;;13.57;9.60;;;20.10;72.10;;;;;;9163138;19;20015;-65
2023/09/10 01:25:09;;;;;;;15.15;11.02;;;20.00;72.10;;;;;;9157888;19;20026;-66
2023/09/10 01:28:14;;;;;;;14.95;11.25;;;20.00;72.20;;;;;;9159191;19;20029;-65
2023/09/10 01:31:22;;;;;;;13.55;11.45;;;20.00;72.20;;;;;;9150702;19;20017;-65
2023/09/10 01:34:33;;;;;;;17.85;11.60;;;20.00;72.20;;;;;;9157946;19;20018;-66
2023/09/10 01:37:47;;;;;;;16.08;12.50;;;20.00;72.40;;;;;;9158478;19;20519;-66
2023/09/10 01:41:03;;;;;;;18.48;12.98;;;19.90;72.40;;;;;;9159200;19;20026;-65
2023/09/10 01:44:11;;;;;;;17.00;12.25;;;19.90;72.50;;;;;;9165255;19;20015;-65
2023/09/10 01:47:17;;;;;;;16.98;12.40;;;19.90;72.50;;;;;;9172126;19;20090;-65
2023/09/10 01:50:24;;;;;;;16.77;12.45;;;19.90;72.50;;;;;;9170338;19;20017;-65
2023/09/10 01:53:30;;;;;;;17.80;13.13;;;19.80;72.50;;;;;;9170570;19;20066;-67
2023/09/10 01:56:40;;;;;;;18.55;14.57;;;19.80;72.60;;;;;;9169456;19;20014;-65
2023/09/10 01:59:45;;;;;;;18.95;15.18;;;19.80;73.30;;;;;;9170321;19;20715;-65
2023/09/10 02:02:52;;;;;;;18.27;14.30;;;19.80;72.60;;;;;;9170130;19;20030;-65
2023/09/10 02:06:00;;;;;;;22.08;15.93;;;19.80;72.80;;;;;;9170126;19;20024;-65
2023/09/10 02:09:07;;;;;;;22.80;15.50;;;19.80;73.40;;;;;;9168788;19;20017;-65
2023/09/10 02:12:16;;;;;;;22.27;15.00;;;19.70;72.80;;;;;;9171196;19;20472;-65
2023/09/10 02:15:23;;;;;;;20.45;14.05;;;19.70;72.80;;;;;;9170633;19;20011;-65
2023/09/10 02:18:30;;;;;;;22.00;15.80;;;19.70;72.80;;;;;;9170945;19;20044;-66
2023/09/10 02:21:38;;;;;;;23.45;16.15;;;19.70;73.00;;;;;;9170951;19;20025;-66
2023/09/10 02:24:49;;;;;;;23.38;16.85;;;19.60;73.00;;;;;;9165187;19;20019;-66
2023/09/10 02:27:59;;;;;;;24.35;17.85;;;19.60;73.00;;;;;;9170232;19;20589;-66
2023/09/10 02:31:07;;;;;;;21.73;15.70;;;19.60;73.20;;;;;;9167561;19;20311;-65
2023/09/10 02:34:14;;;;;;;22.50;15.27;;;19.60;73.20;;;;;;9170440;19;20036;-65
2023/09/10 02:37:20;;;;;;;18.50;13.65;;;19.50;73.20;;;;;;9170469;19;20066;-65
2023/09/10 02:40:28;;;;;;;20.67;14.32;;;19.60;73.30;;;;;;9167758;19;20366;-66
2023/09/10 02:43:36;;;;;;;22.63;16.27;;;19.50;73.30;;;;;;9167928;19;20102;-65
2023/09/10 02:46:43;;;;;;;25.48;16.00;;;19.50;73.40;;;;;;9168044;19;20701;-66
2023/09/10 02:49:49;;;;;;;24.25;17.30;;;19.50;73.40;;;;;;9167314;19;20041;-65
2023/09/10 02:52:56;;;;;;;28.80;19.50;;;19.50;73.40;;;;;;9169774;19;20014;-66
2023/09/10 02:56:02;;;;;;;35.83;21.48;;;19.50;73.50;;;;;;9165701;19;20023;-66
2023/09/10 02:59:21;;;;;;;28.00;19.33;;;19.50;73.50;;;;;;9167320;19;20015;-66
2023/09/10 03:02:26;;;;;;;26.98;18.80;;;19.50;73.70;;;;;;9168870;19;20394;-66
2023/09/10 03:05:36;;;;;;;25.25;17.95;;;19.40;73.50;;;;;;9161596;19;20018;-66
2023/09/10 03:08:42;;;;;;;29.33;19.13;;;19.40;73.60;;;;;;9160978;19;20468;-66
2023/09/10 03:11:50;;;;;;;30.92;19.33;;;19.40;73.70;;;;;;9160974;19;20025;-65
2023/09/10 03:14:58;;;;;;;25.85;18.05;;;19.40;73.70;;;;;;9160136;19;20014;-66
2023/09/10 03:18:07;;;;;;;23.65;17.25;;;19.40;73.90;;;;;;9159379;19;20025;-66
2023/09/10 03:21:13;;;;;;;25.75;17.05;;;19.40;73.80;;;;;;9160083;19;20159;-65
2023/09/10 03:24:20;;;;;;;22.77;15.23;;;19.30;73.80;;;;;;9153479;19;20046;-65
2023/09/10 03:27:25;;;;;;;25.73;14.93;;;19.30;73.90;;;;;;9160628;19;20073;-66
2023/09/10 03:30:37;;;;;;;21.70;14.95;;;19.30;73.90;;;;;;9160430;19;20018;-66
2023/09/10 03:33:43;;;;;;;19.30;14.88;;;19.30;74.00;;;;;;9158274;19;20034;-66
2023/09/10 03:36:51;;;;;;;21.90;15.93;;;19.30;74.00;;;;;;9159125;19;20081;-66
2023/09/10 03:39:56;;;;;;;24.02;16.70;;;19.30;74.00;;;;;;9156027;19;20019;-66
2023/09/10 03:43:04;;;;;;;20.40;15.13;;;19.20;74.00;;;;;;9158391;19;20019;-66
2023/09/10 03:46:12;;;;;;;28.42;16.40;;;19.20;74.00;;;;;;9158353;19;20119;-66
2023/09/10 03:49:19;;;;;;;19.90;14.38;;;19.20;74.10;;;;;;9156991;19;20021;-65
2023/09/10 03:52:25;;;;;;;22.20;15.57;;;19.20;74.10;;;;;;9158134;19;20018;-66
2023/09/10 03:55:33;;;;;;;24.27;16.73;;;19.20;74.10;;;;;;9161850;19;20025;-66
2023/09/10 03:58:39;;;;;;;25.67;16.15;;;19.20;74.10;;;;;;9164773;19;20113;-66
2023/09/10 04:01:50;;;;;;;28.30;18.77;;;19.10;74.10;;;;;;9162719;19;20019;-66
2023/09/10 04:04:56;;;;;;;29.85;20.83;;;19.10;74.20;;;;;;9165347;19;20082;-66
2023/09/10 04:08:04;;;;;;;27.95;20.27;;;19.10;74.20;;;;;;9162035;19;20022;-65
2023/09/10 04:11:09;;;;;;;30.60;20.40;;;19.10;74.30;;;;;;9163444;19;20022;-66
2023/09/10 04:14:16;;;;;;;32.60;21.90;;;19.10;74.30;;;;;;9167530;19;20024;-66
2023/09/10 04:17:28;;;;;;;32.25;22.67;;;19.10;74.30;;;;;;9164656;19;20424;-66
2023/09/10 04:20:35;;;;;;;32.03;22.30;;;19.00;74.40;;;;;;9164411;19;20014;-66
2023/09/10 04:23:41;;;;;;;35.38;22.90;;;19.00;74.40;;;;;;9161935;19;20014;-66
2023/09/10 04:26:49;;;;;;;33.30;23.05;;;19.00;74.40;;;;;;9165615;19;20022;-66
2023/09/10 04:29:54;;;;;;;31.45;21.02;;;19.00;74.50;;;;;;9166121;19;20010;-66
2023/09/10 04:33:06;;;;;;;28.80;21.00;;;19.00;74.50;;;;;;9160961;19;20026;-66
2023/09/10 04:36:12;;;;;;;31.55;22.23;;;19.00;74.60;;;;;;9165360;19;20095;-65
2023/09/10 04:39:20;;;;;;;31.83;20.50;;;18.90;74.60;;;;;;9162569;19;20350;-65
2023/09/10 04:42:25;;;;;;;36.92;24.95;;;18.90;74.60;;;;;;9162931;19;20014;-66
2023/09/10 04:45:33;;;;;;;36.28;25.55;;;18.90;74.70;;;;;;9162316;19;20014;-66
2023/09/10 04:48:41;;;;;;;39.28;25.52;;;18.90;74.70;;;;;;9164623;19;20007;-65
2023/09/10 04:51:48;;;;;;;38.08;25.98;;;18.90;74.80;;;;;;9161316;19;20026;-66
2023/09/10 04:54:53;;;;;;;51.38;26.63;;;18.80;74.80;;;;;;9164325;19;20024;-65
2023/09/10 04:58:01;;;;;;;44.25;27.35;;;18.80;74.80;;;;;;9157305;19;20014;-66
2023/09/10 05:01:06;;;;;;;39.17;25.67;;;18.80;74.90;;;;;;9163294;19;20014;-65
2023/09/10 05:04:16;;;;;;;39.33;26.75;;;18.80;75.00;;;;;;9161748;19;20038;-66
2023/09/10 05:07:22;;;;;;;44.20;27.33;;;18.80;75.10;;;;;;9163307;19;20038;-66
2023/09/10 05:10:31;;;;;;;36.45;26.42;;;18.80;75.10;;;;;;9164122;19;20014;-66
2023/09/10 05:13:36;;;;;;;40.50;27.23;;;18.80;75.10;;;;;;9160155;19;20167;-66
2023/09/10 05:16:43;;;;;;;41.08;28.30;;;18.80;75.20;;;;;;9160932;19;20094;-66
2023/09/10 05:19:51;;;;;;;41.58;27.70;;;18.80;75.20;;;;;;9160823;19;20085;-67
2023/09/10 05:22:59;;;;;;;44.88;30.27;;;18.70;75.30;;;;;;9156559;19;20011;-66
2023/09/10 05:26:06;;;;;;;47.00;30.73;;;18.70;75.20;;;;;;9161655;19;20604;-65
2023/09/10 05:29:13;;;;;;;44.40;31.73;;;18.70;75.30;;;;;;9161277;19;20022;-66
2023/09/10 05:32:19;;;;;;;41.08;29.15;;;18.70;75.40;;;;;;9159416;19;20007;-67
2023/09/10 05:35:29;;;;;;;46.50;29.00;;;18.70;75.40;;;;;;9160446;19;20026;-65
2023/09/10 05:38:34;;;;;;;42.20;29.48;;;18.70;75.60;;;;;;9162001;19;20052;-65
2023/09/10 05:41:42;;;;;;;42.72;29.38;;;18.70;75.70;;;;;;9161214;19;20022;-66
2023/09/10 05:44:47;;;;;;;47.90;29.83;;;18.70;75.70;;;;;;9163197;19;20405;-66
2023/09/10 05:47:54;;;;;;;44.97;29.77;;;18.70;75.80;;;;;;9161039;19;20018;-66
2023/09/10 05:51:02;;;;;;;45.03;30.75;;;18.70;75.90;;;;;;9160794;19;20397;-65
2023/09/10 05:54:10;;;;;;;52.22;33.63;;;18.70;75.90;;;;;;9158673;19;20014;-66
2023/09/10 05:57:15;;;;;;;49.83;35.38;;;18.80;76.00;;;;;;9160125;19;20048;-66
2023/09/10 06:00:23;;;;;;;50.75;33.53;;;18.80;76.10;;;;;;9160144;19;20015;-66
2023/09/10 06:03:29;;;;;;;58.65;37.40;;;18.80;76.20;;;;;;9158550;19;20436;-66
2023/09/10 06:06:39;;;;;;;58.95;37.33;;;18.80;76.30;;;;;;9161541;19;20018;-66
2023/09/10 06:09:44;;;;;;;55.88;38.15;;;18.90;76.40;;;;;;9159302;19;20388;-67
2023/09/10 06:12:52;;;;;;;56.92;39.00;;;18.90;76.40;;;;;;9159433;19;20022;-66
2023/09/10 06:15:57;;;;;;;58.25;40.72;;;19.00;76.50;;;;;;9160138;19;20007;-66
2023/09/10 06:19:05;;;;;;;66.15;43.30;;;19.00;76.60;;;;;;9158299;19;20011;-66
2023/09/10 06:22:13;;;;;;;59.15;40.75;;;19.10;76.80;;;;;;9159642;19;20018;-67
2023/09/10 06:25:20;;;;;;;58.80;40.38;;;19.20;77.00;;;;;;9155971;19;20620;-66
2023/09/10 06:28:26;;;;;;;58.47;40.22;;;19.30;77.00;;;;;;9159478;19;20019;-66
2023/09/10 06:31:34;;;;;;;59.50;39.97;;;19.40;77.10;;;;;;9165393;19;20014;-66
2023/09/10 06:34:40;;;;;;;55.05;38.55;;;19.50;77.20;;;;;;9168921;19;20069;-66
2023/09/10 06:37:51;;;;;;;60.38;38.75;;;19.60;77.30;;;;;;9168202;19;20859;-66
2023/09/10 06:40:56;;;;;;;53.03;36.72;;;19.80;77.50;;;;;;9165504;19;20018;-66
2023/09/10 06:44:04;;;;;;;54.65;35.45;;;19.90;77.40;;;;;;9167943;19;20447;-67
2023/09/10 06:47:10;;;;;;;55.25;36.15;;;20.00;77.40;;;;;;9168199;19;20395;-66
2023/09/10 06:50:18;;;;;;;48.15;34.63;;;20.10;77.40;;;;;;9167510;19;20271;-68
2023/09/10 06:53:26;;;;;;;53.83;35.53;;;20.30;77.50;;;;;;9165482;19;20018;-66
2023/09/10 06:56:33;;;;;;;48.25;34.05;;;20.40;77.50;;;;;;9168020;19;20014;-67
2023/09/10 06:59:38;;;;;;;48.45;33.25;;;20.60;77.40;;;;;;9170172;19;20033;-67
2023/09/10 07:02:46;;;;;;;46.38;33.03;;;20.70;77.40;;;;;;9167519;19;20018;-70
2023/09/10 07:05:51;;;;;;;51.17;32.28;;;20.90;77.40;;;;;;9167744;19;20015;-67
2023/09/10 07:09:02;;;;;;;44.38;31.42;;;21.00;77.30;;;;;;9166518;19;20476;-67
2023/09/10 07:12:09;;;;;;;48.20;29.58;;;21.20;77.40;;;;;;9166360;19;20033;-66
2023/09/10 07:15:17;;;;;;;50.08;31.25;;;21.40;77.40;;;;;;9168486;19;20365;-67
2023/09/10 07:18:22;;;;;;;42.63;28.33;;;21.60;77.30;;;;;;9168785;19;20019;-66
2023/09/10 07:21:29;;;;;;;42.42;29.08;;;21.80;77.10;;;;;;9165824;19;20459;-67
2023/09/10 07:24:37;;;;;;;45.28;30.05;;;22.00;76.90;;;;;;9162570;19;20015;-67
2023/09/10 07:27:45;;;;;;;39.45;28.70;;;22.20;77.00;;;;;;9166433;19;20510;-67
2023/09/10 07:30:50;;;;;;;39.33;27.88;;;22.40;76.80;;;;;;9165460;19;20089;-67
2023/09/10 07:33:57;;;;;;;39.25;27.83;;;22.50;76.60;;;;;;9163914;19;20022;-67
2023/09/10 07:37:03;;;;;;;40.30;27.90;;;22.70;76.50;;;;;;9165791;19;20019;-66
2023/09/10 07:40:14;;;;;;;49.65;28.58;;;22.80;76.40;;;;;;9163722;19;20032;-67
2023/09/10 07:43:22;;;;;;;42.60;28.65;;;22.90;76.30;;;;;;9165751;19;20472;-66
2023/09/10 07:46:30;;;;;;;36.00;27.15;;;23.00;76.70;;;;;;9163131;19;20025;-66
2023/09/10 07:49:35;;;;;;;39.13;26.30;;;23.10;76.10;;;;;;9161660;19;20796;-66
2023/09/10 07:52:43;;;;;;;38.22;26.50;;;23.20;76.00;;;;;;9159276;19;20019;-67
2023/09/10 07:55:51;;;;;;;38.17;26.50;;;23.30;76.00;;;;;;9162881;19;20026;-66
2023/09/10 07:58:58;;;;;;;42.85;26.60;;;23.40;75.90;;;;;;9160427;19;20019;-66
2023/09/10 08:02:04;;;;;;;35.78;26.25;;;23.50;75.90;;;;;;9163884;19;20484;-68
2023/09/10 08:05:11;;;;;;;36.58;25.95;;;23.50;75.80;;;;;;9162876;19;20017;-68
2023/09/10 08:08:17;;;;;;;42.22;27.35;;;23.60;75.80;;;;;;9162880;19;20540;-67
2023/09/10 08:11:27;;;;;;;39.38;28.38;;;23.70;75.80;;;;;;9164127;19;20603;-66
2023/09/10 08:14:32;;;;;;;38.10;25.70;;;23.80;75.90;;;;;;9163266;19;20018;-67
2023/09/10 08:17:40;;;;;;;38.17;27.17;;;23.90;75.90;;;;;;9162276;19;20083;-67
2023/09/10 08:20:46;;;;;;;43.05;27.13;;;24.00;76.00;;;;;;9160401;19;20824;-66
2023/09/10 08:23:53;;;;;;;41.92;27.60;;;24.10;76.00;;;;;;9151882;19;20036;-69
2023/09/10 08:27:05;;;;;;;39.67;27.25;;;24.20;76.00;;;;;;9153826;19;20014;-67
2023/09/10 08:30:13;;;;;;;;;;;24.30;76.10;;;;;;9158362;19;20015;-67
2023/09/10 08:33:18;;;;;;;43.13;27.42;;;24.50;75.70;;;;;;9159032;19;20280;-67
2023/09/10 08:36:25;;;;;;;40.17;28.10;;;24.60;75.80;;;;;;9159784;19;20022;-68
2023/09/10 08:39:34;;;;;;;37.13;25.33;;;24.80;75.90;;;;;;9148748;19;20022;-66
2023/09/10 08:42:56;;;;;;;40.10;25.83;;;24.90;75.90;;;;;;9151055;19;20018;-67
2023/09/10 08:46:02;;;;;;;33.97;24.10;;;25.10;75.90;;;;;;9156352;19;20399;-68
2023/09/10 08:49:12;;;;;;;35.83;24.35;;;25.30;75.80;;;;;;9162208;19;20025;-67
2023/09/10 08:52:18;;;;;;;37.33;23.42;;;25.50;75.60;;;;;;9162290;19;20006;-67
2023/09/10 08:55:27;;;;;;;34.30;22.50;;;25.80;75.40;;;;;;9161310;19;20373;-68
2023/09/10 08:58:38;;;;;;;28.42;21.17;;;25.90;75.20;;;;;;9160963;19;20025;-67
2023/09/10 09:01:47;;;;;;;33.77;21.17;;;26.10;75.10;;;;;;9161401;19;20018;-68
2023/09/10 09:04:53;;;;;;;30.60;19.80;;;26.30;74.70;;;;;;9160670;19;20086;-67
2023/09/10 09:08:08;;;;;;;29.55;19.88;;;26.50;74.50;;;;;;9162603;19;20021;-67
2023/09/10 09:11:15;;;;;;;28.42;18.08;;;26.70;74.30;;;;;;9160279;19;20022;-68
2023/09/10 09:14:27;;;;;;;25.83;17.92;;;26.90;74.20;;;;;;9162105;19;20011;-67
2023/09/10 09:17:32;;;;;;;29.65;18.70;;;27.10;73.90;;;;;;9161250;19;20018;-67
2023/09/10 09:20:42;;;;;;;23.85;16.77;;;27.30;73.60;;;;;;9163987;19;20017;-67
2023/09/10 09:23:56;;;;;;;22.23;16.38;;;27.50;73.30;;;;;;9157988;19;20282;-67
2023/09/10 09:27:06;;;;;;;20.58;15.57;;;27.70;73.10;;;;;;9163581;19;20018;-66
2023/09/10 09:30:14;;;;;;;18.73;14.48;;;27.90;72.90;;;;;;9161782;19;20507;-67
2023/09/10 09:33:21;;;;;;;22.00;13.90;;;28.10;72.40;;;;;;9162214;19;20026;-66
2023/09/10 09:36:29;;;;;;;18.33;13.70;;;28.20;72.20;;;;;;9160747;19;20014;-67
2023/09/10 09:39:38;;;;;;;19.67;12.90;;;28.40;71.90;;;;;;9160472;19;20579;-66
2023/09/10 09:42:43;;;;;;;17.20;12.90;;;28.60;71.60;;;;;;9162432;19;20017;-68
2023/09/10 09:45:54;;;;;;;16.52;11.57;;;28.70;71.20;;;;;;9162139;19;21003;-67
2023/09/10 09:48:59;;;;;;;19.70;12.05;;;28.90;70.90;;;;;;9160497;19;20030;-67
2023/09/10 09:52:08;;;;;;;16.75;10.48;;;29.00;70.70;;;;;;9162213;19;20018;-69
2023/09/10 09:55:13;;;;;;;18.08;11.43;;;29.20;70.20;;;;;;9160432;19;20018;-67
2023/09/10 09:58:21;;;;;;;15.52;10.27;;;29.30;69.80;;;;;;9160083;19;20017;-67
2023/09/10 10:01:29;;;;;;;14.90;9.57;;;29.40;69.50;;;;;;9159771;19;20030;-67
2023/09/10 10:04:37;;;;;;;15.00;9.77;;;29.60;69.20;;;;;;9161802;19;20011;-67
2023/09/10 10:07:43;;;;;;;22.42;9.73;;;29.70;69.10;;;;;;9171365;19;20018;-67
2023/09/10 10:10:59;;;;;;;23.17;9.23;;;29.90;68.80;;;;;;9170482;19;20010;-67
2023/09/10 10:14:06;;;;;;;9.57;7.80;;;30.00;68.60;;;;;;9168559;19;20020;-67
2023/09/10 10:17:18;;;;;;;17.10;10.00;;;30.10;68.20;;;;;;9169076;19;20491;-67
2023/09/10 10:20:24;;;;;;;12.50;9.65;;;30.20;67.80;;;;;;9169528;19;20018;-67
2023/09/10 10:23:31;;;;;;;16.08;11.18;;;30.30;67.70;;;;;;9163820;19;20018;-66
2023/09/10 10:26:42;;;;;;;18.40;10.30;;;30.40;67.50;;;;;;9167756;19;20483;-67
2023/09/10 10:29:49;;;;;;;14.88;10.98;;;30.50;67.20;;;;;;9170013;19;20017;-67
2023/09/10 10:33:00;;;;;;;14.45;9.27;;;30.70;67.10;;;;;;9167056;19;20049;-67
2023/09/10 10:36:12;;;;;;;18.02;8.43;;;30.80;66.70;;;;;;9166481;19;20019;-68
2023/09/10 10:39:19;;;;;;;16.67;7.68;;;30.80;66.40;;;;;;9166654;19;20011;-67
2023/09/10 10:42:38;;;;;;;14.23;8.27;;;31.00;66.30;;;;;;9166376;19;20039;-67
2023/09/10 10:45:44;;;;;;;13.02;7.93;;;31.10;66.00;;;;;;9167439;19;20018;-68
2023/09/10 10:48:55;;;;;;;9.20;6.38;;;31.20;65.90;;;;;;9167275;19;20298;-67
2023/09/10 10:52:05;;;;;;;21.45;8.30;;;31.20;65.50;;;;;;9167160;19;20115;-67
2023/09/10 10:55:13;;;;;;;17.85;7.47;;;31.30;65.20;;;;;;9167644;19;20018;-67
2023/09/10 10:58:19;;;;;;;13.20;6.03;;;31.40;65.10;;;;;;9166858;19;20469;-68
2023/09/10 11:01:27;;;;;;;18.17;7.18;;;31.50;64.80;;;;;;9167101;19;20015;-67
2023/09/10 11:04:35;;;;;;;11.90;5.97;;;31.50;64.50;;;;;;9168369;19;20575;-67
2023/09/10 11:07:42;;;;;;;21.88;7.35;;;31.70;64.10;;;;;;9168877;19;20022;-67
2023/09/10 11:10:47;;;;;;;22.52;6.78;;;31.70;64.10;;;;;;9166793;19;20408;-67
2023/09/10 11:14:02;;;;;;;15.90;7.00;;;31.80;63.80;;;;;;9166743;19;20018;-66
2023/09/10 11:17:24;;;;;;;15.25;7.35;;;31.90;63.40;;;;;;9163607;19;20567;-67
2023/09/10 11:20:49;;;;;;;;;;;32.00;63.30;;;;;;9169365;19;20487;-66
2023/09/10 11:24:25;;;;;;;12.88;6.05;;;32.10;64.00;;;;;;9162900;19;19938;-67
2023/09/10 11:27:36;;;;;;;15.32;6.38;;;32.20;63.40;;;;;;9166945;19;20819;-66
2023/09/10 11:30:41;;;;;;;12.15;5.80;;;32.20;63.30;;;;;;9165216;19;20025;-66
2023/09/10 11:33:48;;;;;;;17.65;6.07;;;32.30;63.00;;;;;;9166403;19;20015;-66
2023/09/10 11:36:55;;;;;;;15.07;6.85;;;32.40;62.70;;;;;;9165438;19;20014;-66
2023/09/10 11:40:03;;;;;;;20.55;6.72;;;32.50;62.40;;;;;;9166487;19;20471;-66
2023/09/10 11:43:11;;;;;;;17.20;6.88;;;32.50;62.20;;;;;;9167237;19;20094;-66
2023/09/10 11:46:18;;;;;;;14.35;6.55;;;32.60;61.90;;;;;;9166261;19;20014;-66
2023/09/10 11:49:25;;;;;;;17.48;6.95;;;32.70;61.80;;;;;;9164969;19;20028;-67
2023/09/10 11:52:34;;;;;;;19.83;6.35;;;32.70;61.70;;;;;;9165703;19;20033;-67
2023/09/10 11:55:39;;;;;;;14.35;6.22;;;32.80;61.50;;;;;;9164639;19;20078;-67
2023/09/10 11:58:50;;;;;;;24.95;6.65;;;32.90;61.30;;;;;;9163518;19;20018;-67
2023/09/10 12:01:57;;;;;;;28.98;6.82;;;32.90;60.90;;;;;;9165356;19;20517;-66
2023/09/10 12:05:09;;;;;;;20.77;6.22;;;33.00;60.70;;;;;;9167294;19;20025;-67
2023/09/10 12:08:15;;;;;;;33.60;5.88;;;33.10;60.30;;;;;;9165863;19;20021;-67
2023/09/10 12:11:23;;;;;;;33.65;6.35;;;33.10;60.20;;;;;;9165445;19;20045;-68
2023/09/10 12:14:31;;;;;;;16.55;5.60;;;33.10;60.00;;;;;;9164438;19;20018;-69
2023/09/10 12:17:39;;;;;;;30.25;6.30;;;33.10;59.80;;;;;;9161789;19;20019;-68
2023/09/10 12:20:45;;;;;;;22.40;5.90;;;33.20;59.80;;;;;;9163866;19;20810;-68
2023/09/10 12:23:53;;;;;;;26.25;6.20;;;33.20;59.40;;;;;;9161227;19;20368;-67
2023/09/10 12:26:58;;;;;;;24.33;7.68;;;33.30;59.20;;;;;;9163604;19;20543;-67
2023/09/10 12:30:09;;;;;;;32.20;6.18;;;33.30;59.00;;;;;;9162221;19;20023;-68
2023/09/10 12:33:15;;;;;;;42.20;6.70;;;33.30;58.60;;;;;;9164996;19;20409;-68
2023/09/10 12:36:23;;;;;;;33.75;7.22;;;33.30;58.50;;;;;;9162383;19;20488;-68
2023/09/10 12:39:29;;;;;;;27.25;6.97;;;33.30;58.20;;;;;;9164399;19;20462;-69
2023/09/10 12:42:36;;;;;;;22.35;6.68;;;33.30;58.10;;;;;;9164695;19;20030;-67
2023/09/10 12:45:44;;;;;;;23.27;6.68;;;33.30;58.10;;;;;;9162350;19;20011;-67
2023/09/10 12:48:52;;;;;;;22.15;5.78;;;33.30;57.90;;;;;;9164576;19;20028;-68
2023/09/10 12:51:57;;;;;;;30.15;6.40;;;33.30;58.00;;;;;;9163854;19;20014;-67
2023/09/10 12:55:05;;;;;;;38.40;6.90;;;33.30;57.80;;;;;;9161575;19;20021;-67
2023/09/10 12:58:14;;;;;;;33.63;6.28;;;33.30;57.60;;;;;;9161434;19;20471;-69
2023/09/10 13:01:25;;;;;;;33.08;6.40;;;33.30;57.10;;;;;;9160646;19;20026;-68
2023/09/10 13:04:30;;;;;;;30.95;7.40;;;33.30;57.10;;;;;;9161627;19;20938;-67
2023/09/10 13:07:38;;;;;;;33.25;6.25;;;33.20;57.10;;;;;;9160848;19;20037;-68
2023/09/10 13:10:43;;;;;;;21.13;5.10;;;33.30;57.10;;;;;;9161808;19;20011;-67
2023/09/10 13:13:50;;;;;;;28.30;5.95;;;33.30;57.10;;;;;;9158892;19;20436;-68
2023/09/10 13:16:59;;;;;;;18.13;5.78;;;33.30;57.10;;;;;;9158191;19;20011;-68
2023/09/10 13:20:07;;;;;;;28.02;6.50;;;33.30;56.90;;;;;;9160238;19;20074;-69
2023/09/10 13:23:12;;;;;;;29.73;6.47;;;33.20;56.80;;;;;;9155067;19;20586;-68
2023/09/10 13:26:20;;;;;;;24.98;5.55;;;33.20;56.80;;;;;;9159044;19;20310;-68
2023/09/10 13:29:25;;;;;;;24.92;6.05;;;33.20;56.70;;;;;;9158501;19;20022;-68
2023/09/10 13:32:35;;;;;;;29.33;6.85;;;33.20;56.60;;;;;;9159353;19;20034;-69
2023/09/10 13:35:42;;;;;;;26.77;5.82;;;33.20;56.50;;;;;;9160317;19;20067;-69
2023/09/10 13:38:49;;;;;;;28.23;6.05;;;33.10;56.40;;;;;;9162045;19;20010;-68
2023/09/10 13:41:55;;;;;;;18.35;5.40;;;33.10;56.50;;;;;;9178489;19;20765;-68
2023/09/10 13:45:02;;;;;;;31.80;7.22;;;33.10;56.40;;;;;;9175357;19;20019;-67
2023/09/10 13:48:10;;;;;;;21.20;5.93;;;33.10;56.40;;;;;;9177645;19;20510;-70
2023/09/10 13:51:17;;;;;;;28.95;5.93;;;33.00;56.30;;;;;;9176669;19;20023;-68
2023/09/10 13:54:23;;;;;;;30.10;6.03;;;33.00;56.40;;;;;;9175725;19;20052;-69
2023/09/10 13:57:30;;;;;;;32.85;8.27;;;33.00;56.40;;;;;;9175783;19;20476;-68
2023/09/10 14:00:36;;;;;;;40.40;10.57;;;32.90;56.30;;;;;;9176354;19;20014;-68
2023/09/10 14:03:46;;;;;;;38.97;10.32;;;32.90;56.30;;;;;;9176607;19;20526;-68
2023/09/10 14:06:51;;;;;;;35.72;7.07;;;32.90;56.30;;;;;;9177041;19;20011;-68
2023/09/10 14:09:58;;;;;;;25.30;5.97;;;32.90;56.30;;;;;;9177699;19;20025;-68
2023/09/10 14:13:04;;;;;;;19.42;5.47;;;32.80;56.10;;;;;;9176688;19;20006;-68
2023/09/10 14:16:11;;;;;;;23.45;5.90;;;32.80;56.10;;;;;;9175913;19;20030;-65
2023/09/10 14:19:19;;;;;;;23.05;5.97;;;32.70;56.00;;;;;;9176050;19;20034;-67
2023/09/10 14:22:27;;;;;;;21.05;5.68;;;32.70;56.10;;;;;;9176550;19;20474;-67
2023/09/10 14:25:32;;;;;;;33.35;7.40;;;32.70;56.20;;;;;;9169900;19;20026;-68
2023/09/10 14:28:39;;;;;;;23.70;7.13;;;32.70;56.30;;;;;;9176409;19;20022;-66
2023/09/10 14:31:46;;;;;;;21.50;5.75;;;32.70;56.30;;;;;;9173206;19;20081;-67
2023/09/10 14:34:56;;;;;;;24.80;5.68;;;32.60;56.10;;;;;;9172531;19;20557;-66
2023/09/10 14:38:02;;;;;;;21.95;5.80;;;32.60;56.10;;;;;;9169648;19;20018;-67
2023/09/10 14:41:09;;;;;;;28.25;5.78;;;32.60;56.10;;;;;;9169820;19;20791;-67
2023/09/10 14:44:15;;;;;;;28.00;7.15;;;32.60;56.10;;;;;;9174304;19;20815;-67
2023/09/10 14:47:22;;;;;;;22.00;5.93;;;32.60;56.10;;;;;;9175108;19;20018;-66
2023/09/10 14:50:31;;;;;;;19.52;5.90;;;32.50;56.10;;;;;;9171494;19;20014;-68
2023/09/10 14:53:39;;;;;;;33.75;6.50;;;32.50;56.10;;;;;;9165679;19;20019;-67
2023/09/10 14:56:44;;;;;;;20.55;5.93;;;32.50;56.20;;;;;;9164028;19;20025;-67
2023/09/10 14:59:52;;;;;;;16.30;5.30;;;32.40;56.20;;;;;;9163530;19;20029;-67
2023/09/10 15:02:57;;;;;;;22.55;6.35;;;32.40;56.20;;;;;;9163124;19;20082;-68
2023/09/10 15:06:09;;;;;;;29.17;5.30;;;32.40;56.20;;;;;;9166054;19;20741;-69
2023/09/10 15:09:14;;;;;;;27.75;5.45;;;32.30;56.00;;;;;;9165215;19;20085;-69
2023/09/10 15:12:21;;;;;;;15.63;5.78;;;32.30;56.20;;;;;;9165474;19;20029;-67
2023/09/10 15:15:28;;;;;;;23.75;6.40;;;32.30;56.20;;;;;;9164002;19;20023;-67
2023/09/10 15:18:36;;;;;;;34.92;7.50;;;32.30;56.40;;;;;;9160419;19;20018;-68
2023/09/10 15:21:44;;;;;;;26.73;6.53;;;32.30;56.30;;;;;;9164540;19;20010;-67
2023/09/10 15:24:51;;;;;;;16.77;5.97;;;32.20;56.30;;;;;;9161226;19;20020;-67
2023/09/10 15:27:56;;;;;;;29.08;6.63;;;32.20;56.40;;;;;;9162773;19;20018;-67
2023/09/10 15:31:04;;;;;;;25.58;6.00;;;32.10;56.40;;;;;;9162972;19;20026;-68
2023/09/10 15:34:11;;;;;;;28.08;6.85;;;32.10;56.50;;;;;;9161652;19;20010;-66
2023/09/10 15:37:22;;;;;;;27.70;7.53;;;32.00;56.60;;;;;;9162508;19;20018;-67
2023/09/10 15:40:28;;;;;;;26.65;5.80;;;31.90;56.70;;;;;;9159851;19;20025;-68
2023/09/10 15:43:35;;;;;;;20.73;5.93;;;31.90;56.80;;;;;;9162556;19;20015;-67
2023/09/10 15:46:41;;;;;;;27.48;5.97;;;31.80;56.80;;;;;;9162194;19;20078;-66
2023/09/10 15:49:48;;;;;;;30.98;6.70;;;31.80;56.80;;;;;;9161055;19;20030;-67
2023/09/10 15:52:56;;;;;;;32.55;5.93;;;31.70;56.90;;;;;;9163188;19;20023;-67
2023/09/10 15:56:03;;;;;;;19.17;5.70;;;31.70;57.10;;;;;;9161225;19;20014;-67